createdAt,value
2019-03-20T00:00:31.528Z,101147.00
2019-03-20T00:03:01.319Z,101157.00
2019-03-20T00:05:30.526Z,101157.00
2019-03-20T00:08:00.022Z,101154.00
2019-03-20T00:10:29.527Z,101150.00
2019-03-20T00:12:58.845Z,101153.00
2019-03-20T00:15:28.245Z,101153.00
2019-03-20T00:17:57.947Z,101153.00
2019-03-20T00:20:27.464Z,101153.00
2019-03-20T00:22:56.788Z,101152.00
2019-03-20T00:25:26.068Z,101163.00
2019-03-20T00:27:55.566Z,101151.00
2019-03-20T00:30:24.791Z,101149.00
2019-03-20T00:32:54.278Z,101149.00
2019-03-20T00:35:24.029Z,101138.00
2019-03-20T00:37:55.935Z,101141.00
2019-03-20T00:40:25.456Z,101142.00
2019-03-20T00:42:54.967Z,101139.00
2019-03-20T00:45:24.475Z,101146.00
2019-03-20T00:47:53.774Z,101145.00
2019-03-20T00:50:23.074Z,101137.00
2019-03-20T00:52:52.567Z,101141.00
2019-03-20T00:55:21.780Z,101138.00
2019-03-20T00:57:51.274Z,101140.00
2019-03-20T01:00:25.571Z,101143.00
2019-03-20T01:02:55.007Z,101128.00
2019-03-20T01:05:25.009Z,101132.00
2019-03-20T01:07:54.230Z,101131.00
2019-03-20T01:10:25.279Z,101137.00
2019-03-20T01:12:55.993Z,101131.00
2019-03-20T01:15:26.617Z,101128.00
2019-03-20T01:17:55.813Z,101134.00
2019-03-20T01:20:25.537Z,101128.00
2019-03-20T01:22:54.845Z,101134.00
2019-03-20T01:25:24.150Z,101137.00
2019-03-20T01:27:53.672Z,101130.00
2019-03-20T01:30:37.178Z,101139.00
2019-03-20T01:33:12.357Z,101135.00
2019-03-20T01:35:42.156Z,101131.00
2019-03-20T01:38:12.180Z,101140.00
2019-03-20T01:40:41.680Z,101130.00
2019-03-20T01:43:11.163Z,101129.00
2019-03-20T01:45:40.584Z,101132.00
2019-03-20T01:48:10.086Z,101124.00
2019-03-20T01:50:39.687Z,101133.00
2019-03-20T01:53:08.895Z,101135.00
2019-03-20T01:55:38.301Z,101138.00
2019-03-20T01:58:08.011Z,101142.00
2019-03-20T02:00:39.571Z,101136.00
2019-03-20T02:03:08.970Z,101138.00
2019-03-20T02:05:38.585Z,101138.00
2019-03-20T02:08:07.860Z,101139.00
2019-03-20T02:10:37.383Z,101150.00
2019-03-20T02:13:06.888Z,101143.00
2019-03-20T02:15:39.334Z,101148.00
2019-03-20T02:18:07.133Z,101140.00
2019-03-20T02:20:37.255Z,101145.00
2019-03-20T02:23:06.947Z,101135.00
2019-03-20T02:25:36.364Z,101138.00
2019-03-20T02:28:05.563Z,101153.00
2019-03-20T02:30:35.076Z,101148.00
2019-03-20T02:33:04.672Z,101152.00
2019-03-20T02:35:33.879Z,101144.00
2019-03-20T02:38:03.498Z,101148.00
2019-03-20T02:40:32.993Z,101143.00
2019-03-20T02:43:02.421Z,101145.00
2019-03-20T02:45:31.701Z,101141.00
2019-03-20T02:48:01.188Z,101142.00
2019-03-20T02:50:30.508Z,101143.00
2019-03-20T02:53:00.063Z,101160.00
2019-03-20T02:55:29.316Z,101154.00
2019-03-20T02:57:58.913Z,101155.00
2019-03-20T03:00:28.537Z,101156.00
2019-03-20T03:02:57.930Z,101155.00
2019-03-20T03:05:27.805Z,101156.00
2019-03-20T03:07:57.161Z,101157.00
2019-03-20T03:10:26.460Z,101157.00
2019-03-20T03:12:56.088Z,101163.00
2019-03-20T03:15:25.657Z,101161.00
2019-03-20T03:17:55.077Z,101163.00
2019-03-20T03:20:24.258Z,101167.00
2019-03-20T03:22:53.780Z,101159.00
2019-03-20T03:25:23.190Z,101158.00
2019-03-20T03:27:52.693Z,101148.00
2019-03-20T03:30:30.193Z,101159.00
2019-03-20T03:32:59.686Z,101161.00
2019-03-20T03:35:28.998Z,101156.00
2019-03-20T03:37:58.487Z,101161.00
2019-03-20T03:40:27.998Z,101159.00
2019-03-20T03:42:57.311Z,101162.00
2019-03-20T03:45:26.716Z,101165.00
2019-03-20T03:47:55.917Z,101167.00
2019-03-20T03:50:26.340Z,101167.00
2019-03-20T03:52:55.539Z,101175.00
2019-03-20T03:55:24.836Z,101174.00
2019-03-20T03:57:54.339Z,101168.00
2019-03-20T04:00:23.750Z,101172.00
2019-03-20T04:02:53.242Z,101166.00
2019-03-20T04:05:22.829Z,101180.00
2019-03-20T04:07:52.401Z,101184.00
2019-03-20T04:10:21.782Z,101169.00
2019-03-20T04:12:51.165Z,101177.00
2019-03-20T04:15:20.770Z,101166.00
2019-03-20T04:17:50.193Z,101176.00
2019-03-20T04:20:20.823Z,101178.00
2019-03-20T04:22:50.236Z,101179.00
2019-03-20T04:25:19.719Z,101183.00
2019-03-20T04:27:49.211Z,101192.00
2019-03-20T04:30:19.977Z,101196.00
2019-03-20T04:32:49.469Z,101184.00
2019-03-20T04:35:18.989Z,101193.00
2019-03-20T04:37:53.325Z,101185.00
2019-03-20T04:40:24.555Z,101187.00
2019-03-20T04:42:53.857Z,101193.00
2019-03-20T04:45:23.554Z,101195.00
2019-03-20T04:47:52.972Z,101197.00
2019-03-20T04:50:22.470Z,101198.00
2019-03-20T04:52:51.973Z,101195.00
2019-03-20T04:55:21.286Z,101188.00
2019-03-20T04:57:50.786Z,101187.00
2019-03-20T05:00:22.428Z,101186.00
2019-03-20T05:02:52.059Z,101187.00
2019-03-20T05:05:21.357Z,101183.00
2019-03-20T05:07:50.889Z,101194.00
2019-03-20T05:10:20.672Z,101195.00
2019-03-20T05:12:49.989Z,101213.00
2019-03-20T05:15:19.183Z,101200.00
2019-03-20T05:17:48.378Z,101199.00
2019-03-20T05:20:18.605Z,101200.00
2019-03-20T05:22:47.799Z,101204.00
2019-03-20T05:25:16.998Z,101200.00
2019-03-20T05:27:46.497Z,101207.00
2019-03-20T05:30:16.200Z,101206.00
2019-03-20T05:32:45.931Z,101205.00
2019-03-20T05:35:15.430Z,101210.00
2019-03-20T05:37:44.929Z,101214.00
2019-03-20T05:40:15.224Z,101225.00
2019-03-20T05:42:44.859Z,101230.00
2019-03-20T05:45:16.223Z,101230.00
2019-03-20T05:47:45.738Z,101234.00
2019-03-20T05:50:17.379Z,101240.00
2019-03-20T05:52:46.688Z,101237.00
2019-03-20T05:55:15.994Z,101237.00
2019-03-20T05:57:45.595Z,101234.00
2019-03-20T06:00:21.711Z,101242.00
2019-03-20T06:02:51.358Z,101249.00
2019-03-20T06:05:20.570Z,101259.00
2019-03-20T06:07:50.482Z,101259.00
2019-03-20T06:10:20.296Z,101256.00
2019-03-20T06:12:49.704Z,101260.00
2019-03-20T06:15:19.205Z,101256.00
2019-03-20T06:17:48.514Z,101267.00
2019-03-20T06:20:17.711Z,101263.00
2019-03-20T06:22:47.113Z,101273.00
2019-03-20T06:25:16.721Z,101278.00
2019-03-20T06:27:45.922Z,101280.00
2019-03-20T06:30:16.335Z,101285.00
2019-03-20T06:32:45.755Z,101290.00
2019-03-20T06:35:15.158Z,101302.00
2019-03-20T06:37:44.654Z,101295.00
2019-03-20T06:40:19.284Z,101305.00
2019-03-20T06:42:48.800Z,101306.00
2019-03-20T06:45:21.480Z,101319.00
2019-03-20T06:47:50.969Z,101314.00
2019-03-20T06:50:23.663Z,101313.00
2019-03-20T06:52:53.270Z,101329.00
2019-03-20T06:55:22.472Z,101311.00
2019-03-20T06:57:51.773Z,101318.00
2019-03-20T07:00:50.264Z,101319.00
2019-03-20T07:03:47.022Z,101315.00
2019-03-20T07:06:33.190Z,101328.00
2019-03-20T07:09:28.147Z,101324.00
2019-03-20T07:11:57.507Z,101330.00
2019-03-20T07:14:27.115Z,101330.00
2019-03-20T07:16:56.608Z,101327.00
2019-03-20T07:19:25.924Z,101334.00
2019-03-20T07:21:55.124Z,101344.00
2019-03-20T07:24:24.535Z,101351.00
2019-03-20T07:26:54.028Z,101350.00
2019-03-20T07:29:23.842Z,101361.00
2019-03-20T07:31:53.341Z,101352.00
2019-03-20T07:34:22.762Z,101363.00
2019-03-20T07:36:52.265Z,101345.00
2019-03-20T07:39:22.066Z,101361.00
2019-03-20T07:41:51.384Z,101377.00
2019-03-20T07:44:20.992Z,101370.00
2019-03-20T07:46:50.191Z,101371.00
2019-03-20T07:49:19.389Z,101366.00
2019-03-20T07:51:48.520Z,101376.00
2019-03-20T07:54:17.977Z,101378.00
2019-03-20T07:56:47.483Z,101385.00
2019-03-20T07:59:17.310Z,101388.00
2019-03-20T08:01:46.700Z,101387.00
2019-03-20T08:04:16.206Z,101386.00
2019-03-20T08:06:45.521Z,101384.00
2019-03-20T08:09:15.129Z,101392.00
2019-03-20T08:11:46.200Z,101394.00
2019-03-20T08:14:34.447Z,101397.00
2019-03-20T08:17:03.617Z,101407.00
2019-03-20T08:19:33.127Z,101399.00
2019-03-20T08:22:02.716Z,101398.00
2019-03-20T08:24:31.942Z,101401.00
2019-03-20T08:27:01.328Z,101404.00
2019-03-20T08:29:30.851Z,101403.00
2019-03-20T08:32:00.356Z,101410.00
2019-03-20T08:34:29.556Z,101407.00
2019-03-20T08:36:59.083Z,101408.00
2019-03-20T08:39:28.551Z,101408.00
2019-03-20T08:41:57.869Z,101402.00
2019-03-20T08:44:27.264Z,101408.00
2019-03-20T08:46:56.663Z,101423.00
2019-03-20T08:49:25.875Z,101421.00
2019-03-20T08:51:55.367Z,101412.00
2019-03-20T08:54:24.681Z,101415.00
2019-03-20T08:56:53.878Z,101413.00
2019-03-20T08:59:23.386Z,101414.00
2019-03-20T09:01:52.889Z,101421.00
2019-03-20T09:04:22.195Z,101427.00
2019-03-20T09:06:51.697Z,101427.00
2019-03-20T09:09:20.896Z,101430.00
2019-03-20T09:11:50.094Z,101427.00
2019-03-20T09:14:19.602Z,101430.00
2019-03-20T09:16:48.800Z,101423.00
2019-03-20T09:19:18.001Z,101430.00
2019-03-20T09:21:47.550Z,101435.00
2019-03-20T09:24:17.011Z,101438.00
2019-03-20T09:26:46.516Z,101452.00
2019-03-20T09:29:18.874Z,101443.00
2019-03-20T09:31:47.373Z,101445.00
2019-03-20T09:34:16.675Z,101450.00
2019-03-20T09:36:46.181Z,101448.00
2019-03-20T09:39:15.578Z,101451.00
2019-03-20T09:41:44.931Z,101457.00
2019-03-20T09:44:14.085Z,101457.00
2019-03-20T09:46:43.287Z,101454.00
2019-03-20T09:49:12.908Z,101450.00
2019-03-20T09:51:42.390Z,101450.00
2019-03-20T09:54:12.113Z,101452.00
2019-03-20T09:56:41.314Z,101449.00
2019-03-20T09:59:10.890Z,101449.00
2019-03-20T10:01:40.414Z,101463.00
2019-03-20T10:04:09.625Z,101456.00
2019-03-20T10:06:39.030Z,101460.00
2019-03-20T10:09:09.346Z,101460.00
2019-03-20T10:11:38.852Z,101458.00
2019-03-20T10:14:08.161Z,101467.00
2019-03-20T10:16:37.567Z,101461.00
2019-03-20T10:19:06.770Z,101460.00
2019-03-20T10:21:36.169Z,101471.00
2019-03-20T10:24:05.350Z,101465.00
2019-03-20T10:26:35.184Z,101463.00
2019-03-20T10:29:04.583Z,101453.00
2019-03-20T10:31:34.083Z,101459.00
2019-03-20T10:34:03.589Z,101459.00
2019-03-20T10:36:33.089Z,101465.00
2019-03-20T10:39:06.840Z,101464.00
2019-03-20T10:41:33.259Z,101456.00
2019-03-20T10:44:02.442Z,101450.00
2019-03-20T10:46:31.943Z,101446.00
2019-03-20T10:49:01.447Z,101460.00
2019-03-20T10:51:30.760Z,101452.00
2019-03-20T10:54:00.146Z,101456.00
2019-03-20T10:56:29.652Z,101451.00
2019-03-20T10:58:58.865Z,101460.00
2019-03-20T11:01:28.498Z,101456.00
2019-03-20T11:03:58.104Z,101456.00
2019-03-20T11:06:27.282Z,101450.00
2019-03-20T11:08:56.777Z,101452.00
2019-03-20T11:11:27.394Z,101443.00
2019-03-20T11:13:56.926Z,101456.00
2019-03-20T11:16:26.130Z,101455.00
2019-03-20T11:18:55.428Z,101454.00
2019-03-20T11:21:24.919Z,101448.00
2019-03-20T11:23:54.431Z,101455.00
2019-03-20T11:26:23.644Z,101455.00
2019-03-20T11:28:53.136Z,101446.00
2019-03-20T11:31:22.634Z,101447.00
2019-03-20T11:33:52.055Z,101445.00
2019-03-20T11:36:21.768Z,101437.00
2019-03-20T11:38:51.158Z,101445.00
2019-03-20T11:41:20.663Z,101442.00
2019-03-20T11:43:50.081Z,101441.00
2019-03-20T11:46:19.383Z,101443.00
2019-03-20T11:48:48.687Z,101444.00
2019-03-20T11:51:17.862Z,101436.00
2019-03-20T11:53:47.082Z,101439.00
2019-03-20T11:56:16.281Z,101443.00
2019-03-20T11:58:45.779Z,101428.00
2019-03-20T12:01:15.286Z,101429.00
2019-03-20T12:03:44.697Z,101429.00
2019-03-20T12:06:14.192Z,101431.00
2019-03-20T12:08:43.707Z,101426.00
2019-03-20T12:11:15.786Z,101428.00
2019-03-20T12:13:44.455Z,101427.00
2019-03-20T12:16:13.870Z,101415.00
2019-03-20T12:18:43.610Z,101403.00
2019-03-20T12:21:13.042Z,101413.00
2019-03-20T12:23:42.286Z,101407.00
2019-03-20T12:26:11.677Z,101410.00
2019-03-20T12:28:41.195Z,101396.00
2019-03-20T12:31:10.590Z,101400.00
2019-03-20T12:33:40.235Z,101400.00
2019-03-20T12:36:09.406Z,101399.00
2019-03-20T12:38:38.900Z,101399.00
2019-03-20T12:41:08.407Z,101397.00
2019-03-20T12:43:37.620Z,101398.00
2019-03-20T12:46:06.920Z,101395.00
2019-03-20T12:48:36.124Z,101393.00
2019-03-20T12:51:05.424Z,101389.00
2019-03-20T12:53:36.446Z,101387.00
2019-03-20T12:56:05.962Z,101382.00
2019-03-20T12:58:35.469Z,101390.00
2019-03-20T13:01:05.659Z,101376.00
2019-03-20T13:03:35.208Z,101387.00
2019-03-20T13:06:04.706Z,101382.00
2019-03-20T13:08:34.121Z,101386.00
2019-03-20T13:11:03.626Z,101385.00
2019-03-20T13:13:33.119Z,101378.00
2019-03-20T13:16:02.534Z,101391.00
2019-03-20T13:18:32.141Z,101386.00
2019-03-20T13:21:01.962Z,101388.00
2019-03-20T13:23:33.919Z,101395.00
2019-03-20T13:26:03.323Z,101400.00
2019-03-20T13:28:32.825Z,101396.00
2019-03-20T13:31:05.612Z,101389.00
2019-03-20T13:33:35.018Z,101396.00
2019-03-20T13:36:04.532Z,101392.00
2019-03-20T13:38:34.130Z,101384.00
2019-03-20T13:41:03.633Z,101389.00
2019-03-20T13:43:33.136Z,101385.00
2019-03-20T13:46:02.550Z,101383.00
2019-03-20T13:48:32.059Z,101380.00
2019-03-20T13:51:01.560Z,101382.00
2019-03-20T13:53:30.760Z,101400.00
2019-03-20T13:56:00.259Z,101397.00
2019-03-20T13:58:29.673Z,101395.00
2019-03-20T14:00:59.077Z,101397.00
2019-03-20T14:03:28.572Z,101402.00
2019-03-20T14:05:58.074Z,101405.00
2019-03-20T14:08:27.391Z,101396.00
2019-03-20T14:10:56.885Z,101394.00
2019-03-20T14:13:26.436Z,101388.00
2019-03-20T14:15:55.897Z,101382.00
2019-03-20T14:18:25.137Z,101376.00
2019-03-20T14:20:54.511Z,101386.00
2019-03-20T14:23:23.906Z,101380.00
2019-03-20T14:25:53.227Z,101385.00
2019-03-20T14:28:22.913Z,101383.00
2019-03-20T14:30:52.428Z,101370.00
2019-03-20T14:33:21.735Z,101359.00
2019-03-20T14:35:51.340Z,101363.00
2019-03-20T14:38:20.946Z,101358.00
2019-03-20T14:40:50.453Z,101363.00
2019-03-20T14:43:19.746Z,101356.00
2019-03-20T14:45:49.472Z,101366.00
2019-03-20T14:48:18.973Z,101365.00
2019-03-20T14:50:48.278Z,101360.00
2019-03-20T14:53:17.772Z,101355.00
2019-03-20T14:55:47.193Z,101362.00
2019-03-20T14:58:16.684Z,101364.00
2019-03-20T15:00:46.100Z,101357.00
2019-03-20T15:03:15.597Z,101359.00
2019-03-20T15:05:45.105Z,101355.00
2019-03-20T15:08:14.311Z,101350.00
2019-03-20T15:10:46.114Z,101347.00
2019-03-20T15:13:14.554Z,101348.00
2019-03-20T15:15:58.806Z,101356.00
2019-03-20T15:18:47.460Z,101349.00
2019-03-20T15:21:16.864Z,101347.00
2019-03-20T15:23:46.062Z,101342.00
2019-03-20T15:26:15.562Z,101357.00
2019-03-20T15:28:44.770Z,101364.00
2019-03-20T15:31:14.315Z,101366.00
2019-03-20T15:33:43.777Z,101358.00
2019-03-20T15:36:13.184Z,101362.00
2019-03-20T15:38:42.706Z,101363.00
2019-03-20T15:41:13.937Z,101360.00
2019-03-20T15:43:43.343Z,101347.00
2019-03-20T15:46:12.847Z,101340.00
2019-03-20T15:48:42.252Z,101341.00
2019-03-20T15:51:11.656Z,101349.00
2019-03-20T15:53:41.265Z,101341.00
2019-03-20T15:56:10.465Z,101336.00
2019-03-20T15:58:41.405Z,101326.00
2019-03-20T16:01:10.796Z,101340.00
2019-03-20T16:03:44.262Z,101331.00
2019-03-20T16:06:13.611Z,101329.00
2019-03-20T16:08:43.144Z,101328.00
2019-03-20T16:11:12.418Z,101338.00
2019-03-20T16:13:41.636Z,101327.00
2019-03-20T16:16:12.159Z,101329.00
2019-03-20T16:18:41.658Z,101339.00
2019-03-20T16:21:11.001Z,101335.00
2019-03-20T16:23:40.260Z,101340.00
2019-03-20T16:26:09.789Z,101348.00
2019-03-20T16:28:39.883Z,101352.00
2019-03-20T16:31:09.083Z,101355.00
2019-03-20T16:33:38.283Z,101349.00
2019-03-20T16:36:07.682Z,101356.00
2019-03-20T16:38:37.495Z,101346.00
2019-03-20T16:41:16.457Z,101351.00
2019-03-20T16:43:39.585Z,101357.00
2019-03-20T16:46:09.394Z,101352.00
2019-03-20T16:48:40.452Z,101339.00
2019-03-20T16:51:23.159Z,101341.00
2019-03-20T16:53:52.684Z,101342.00
2019-03-20T16:56:21.964Z,101335.00
2019-03-20T16:58:51.564Z,101329.00
2019-03-20T17:01:20.979Z,101329.00
2019-03-20T17:03:50.479Z,101332.00
2019-03-20T17:06:19.985Z,101334.00
2019-03-20T17:08:49.289Z,101337.00
2019-03-20T17:11:30.291Z,101355.00
2019-03-20T17:13:51.579Z,101345.00
2019-03-20T17:16:21.390Z,101341.00
2019-03-20T17:18:51.301Z,101347.00
2019-03-20T17:21:20.716Z,101350.00
2019-03-20T17:23:50.207Z,101356.00
2019-03-20T17:26:19.930Z,101351.00
2019-03-20T17:28:49.502Z,101348.00
2019-03-20T17:31:19.063Z,101357.00
2019-03-20T17:33:48.550Z,101351.00
2019-03-20T17:36:17.854Z,101347.00
2019-03-20T17:38:47.154Z,101340.00
2019-03-20T17:41:16.664Z,101348.00
2019-03-20T17:43:45.962Z,101356.00
2019-03-20T17:46:17.379Z,101363.00
2019-03-20T17:48:46.242Z,101359.00
2019-03-20T17:51:18.779Z,101370.00
2019-03-20T17:53:48.187Z,101358.00
2019-03-20T17:56:17.577Z,101372.00
2019-03-20T17:58:48.112Z,101367.00
2019-03-20T18:01:17.721Z,101361.00
2019-03-20T18:03:47.224Z,101359.00
2019-03-20T18:06:18.485Z,101349.00
2019-03-20T18:08:47.988Z,101360.00
2019-03-20T18:11:17.484Z,101365.00
2019-03-20T18:13:47.098Z,101365.00
2019-03-20T18:16:16.509Z,101364.00
2019-03-20T18:18:47.739Z,101365.00
2019-03-20T18:21:16.966Z,101367.00
2019-03-20T18:23:46.361Z,101378.00
2019-03-20T18:26:15.663Z,101363.00
2019-03-20T18:28:44.866Z,101382.00
2019-03-20T18:31:14.379Z,101383.00
2019-03-20T18:33:43.955Z,101377.00
2019-03-20T18:36:13.275Z,101382.00
2019-03-20T18:38:42.576Z,101390.00
2019-03-20T18:41:11.981Z,101393.00
2019-03-20T18:43:41.387Z,101399.00
2019-03-20T18:46:10.584Z,101392.00
2019-03-20T18:48:39.788Z,101393.00
2019-03-20T18:51:09.585Z,101394.00
2019-03-20T18:53:39.194Z,101400.00
2019-03-20T18:56:08.415Z,101404.00
2019-03-20T18:58:37.707Z,101397.00
2019-03-20T19:01:07.205Z,101398.00
2019-03-20T19:03:41.421Z,101405.00
2019-03-20T19:06:18.603Z,101397.00
2019-03-20T19:08:47.921Z,101390.00
2019-03-20T19:11:17.423Z,101397.00
2019-03-20T19:13:46.928Z,101391.00
2019-03-20T19:16:16.234Z,101397.00
2019-03-20T19:18:46.072Z,101401.00
2019-03-20T19:21:15.651Z,101401.00
2019-03-20T19:23:44.957Z,101396.00
2019-03-20T19:26:14.568Z,101403.00
2019-03-20T19:28:44.060Z,101400.00
2019-03-20T19:31:13.569Z,101408.00
2019-03-20T19:33:43.071Z,101407.00
2019-03-20T19:36:12.391Z,101403.00
2019-03-20T19:38:41.686Z,101411.00
2019-03-20T19:41:11.185Z,101406.00
2019-03-20T19:43:40.904Z,101408.00
2019-03-20T19:46:10.398Z,101407.00
2019-03-20T19:48:39.614Z,101408.00
2019-03-20T19:51:08.914Z,101402.00
2019-03-20T19:53:38.343Z,101406.00
2019-03-20T19:56:07.842Z,101393.00
2019-03-20T19:58:37.122Z,101402.00
2019-03-20T20:01:06.629Z,101397.00
2019-03-20T20:03:36.127Z,101401.00
2019-03-20T20:06:05.870Z,101398.00
2019-03-20T20:08:35.251Z,101404.00
2019-03-20T20:11:04.748Z,101394.00
2019-03-20T20:13:34.057Z,101399.00
2019-03-20T20:16:03.668Z,101401.00
2019-03-20T20:18:39.011Z,101407.00
2019-03-20T20:21:08.508Z,101396.00
2019-03-20T20:23:38.116Z,101404.00
2019-03-20T20:26:07.630Z,101403.00
2019-03-20T20:28:37.147Z,101408.00
2019-03-20T20:31:06.648Z,101409.00
2019-03-20T20:33:38.162Z,101409.00
2019-03-20T20:36:20.607Z,101405.00
2019-03-20T20:38:57.691Z,101404.00
2019-03-20T20:41:27.187Z,101415.00
2019-03-20T20:43:57.934Z,101409.00
2019-03-20T20:46:27.131Z,101399.00
2019-03-20T20:48:56.433Z,101402.00
2019-03-20T20:51:25.740Z,101406.00
2019-03-20T20:53:55.228Z,101394.00
2019-03-20T20:56:24.743Z,101395.00
2019-03-20T20:58:53.952Z,101406.00
2019-03-20T21:01:23.452Z,101403.00
2019-03-20T21:03:52.962Z,101411.00
2019-03-20T21:06:30.555Z,101413.00
2019-03-20T21:08:59.953Z,101409.00
2019-03-20T21:11:29.764Z,101408.00
2019-03-20T21:13:58.970Z,101411.00
2019-03-20T21:16:28.274Z,101409.00
2019-03-20T21:19:18.977Z,101415.00
2019-03-20T21:22:06.279Z,101418.00
2019-03-20T21:24:35.697Z,101404.00
2019-03-20T21:27:08.282Z,101410.00
2019-03-20T21:30:00.541Z,101410.00
2019-03-20T21:32:41.782Z,101420.00
2019-03-20T21:35:37.019Z,101414.00
2019-03-20T21:38:06.003Z,101411.00
2019-03-20T21:40:44.321Z,101410.00
2019-03-20T21:43:41.580Z,101407.00
2019-03-20T21:46:23.168Z,101410.00
2019-03-20T21:48:52.572Z,101412.00
2019-03-20T21:51:21.861Z,101419.00
2019-03-20T21:54:12.478Z,101425.00
2019-03-20T21:57:13.099Z,101423.00
2019-03-20T22:00:18.758Z,101425.00
2019-03-20T22:02:48.368Z,101436.00
2019-03-20T22:05:36.005Z,101436.00
2019-03-20T22:08:05.640Z,101426.00
2019-03-20T22:11:20.269Z,101436.00
2019-03-20T22:13:52.655Z,101430.00
2019-03-20T22:16:30.336Z,101443.00
2019-03-20T22:19:27.305Z,101438.00
2019-03-20T22:22:23.845Z,101449.00
2019-03-20T22:25:28.475Z,101437.00
2019-03-20T22:28:23.569Z,101446.00
2019-03-20T22:30:53.100Z,101446.00
2019-03-20T22:33:59.355Z,101442.00
2019-03-20T22:36:28.966Z,101454.00
2019-03-20T22:39:13.522Z,101459.00
2019-03-20T22:41:57.673Z,101466.00
2019-03-20T22:44:27.170Z,101459.00
2019-03-20T22:47:02.828Z,101457.00
2019-03-20T22:50:08.502Z,101464.00
2019-03-20T22:52:49.868Z,101471.00
2019-03-20T22:55:31.355Z,101469.00
2019-03-20T22:58:29.430Z,101476.00
2019-03-20T23:01:00.932Z,101480.00
2019-03-20T23:03:38.712Z,101485.00
2019-03-20T23:06:08.284Z,101487.00
2019-03-20T23:08:37.798Z,101489.00
2019-03-20T23:11:07.215Z,101496.00
2019-03-20T23:13:41.621Z,101499.00
2019-03-20T23:16:10.935Z,101498.00
2019-03-20T23:18:40.235Z,101498.00
2019-03-20T23:21:09.640Z,101499.00
2019-03-20T23:23:39.455Z,101500.00
2019-03-20T23:26:08.955Z,101499.00
2019-03-20T23:28:38.568Z,101499.00
2019-03-20T23:31:07.870Z,101498.00
2019-03-20T23:33:37.377Z,101503.00
2019-03-20T23:36:07.088Z,101499.00
2019-03-20T23:38:36.488Z,101497.00
2019-03-20T23:41:06.360Z,101503.00
2019-03-20T23:43:35.703Z,101494.00
2019-03-20T23:46:06.953Z,101493.00
2019-03-20T23:48:48.643Z,101499.00
2019-03-20T23:51:20.895Z,101503.00
2019-03-20T23:53:51.851Z,101494.00
2019-03-20T23:56:21.446Z,101497.00
2019-03-20T23:58:51.172Z,101493.00
